• Join FlightAware (Why Join?)
  • Login
  • US Flag 
11:20PM EDT


 

Airport Tracker/Info


-or-


 

Live Flight TrackerFlight Track Log ✈ UAL4234 ✈ 21-Oct-2013 ✈ KORD - KBUF

Flight Track Log - Related Links

Times and Time Zones

All times are in EDT time to prevent confusion due to time zone crossing. See the UAL4234 flight status page for this flight to view local times or setup timezone preferences in your user account.

Time Position Orientation Groundspeed Altitude Reporting Facility
EDT Latitude Longitude Course Direction KTS MPH feet Rate Location/Type
08:22AM 42.0000 -87.9500 37° Northeast 161 185 2,500  Level Chicago TRACON
08:23AM 42.0500 -87.9000 37° Northeast 241 277 4,200 1,200 Climbing Chicago TRACON
08:24AM 42.1167 -87.8333 37° Northeast 270 311 5,100 1,380 Climbing Chicago TRACON
08:26AM 42.1356 -87.6886 80° East 296 341 7,700 1,800 Climbing Chicago Center
08:27AM 42.1314 -87.5689 93° East 313 360 9,800 1,980 Climbing Chicago Center
08:28AM 42.1264 -87.4475 93° East 321 369 11,900 1,800 Climbing Chicago Center
08:29AM 42.1228 -87.3222 92° East 330 380 13,600 1,380 Climbing Chicago Center
08:30AM 42.1172 -87.1908 93° East 344 396 14,800 1,080 Climbing Chicago Center
08:31AM 42.1136 -87.0508 92° East 365 420 15,900 1,080 Climbing Chicago Center
08:32AM 42.1211 -86.8714 87° East 394 453 17,100 1,080 Climbing Chicago Center
08:33AM 42.1269 -86.7164 87° East 409 471 18,200 1,020 Climbing Chicago Center
08:34AM 42.1303 -86.5542 88° East 425 489 19,300 960 Climbing Chicago Center
08:35AM 42.1356 -86.3911 87° East 432 497 20,300 960 Climbing Chicago Center
08:36AM 42.1406 -86.2256 88° East 438 504 21,300 960 Climbing Chicago Center
08:37AM 42.1436 -86.0569 89° East 446 513 22,400 1,020 Climbing Chicago Center
08:38AM 42.1417 -85.8697 91° East 454 522 23,500 960 Climbing Chicago Center
08:39AM 42.1406 -85.6994 90° East 457 526 24,500 960 Climbing Chicago Center
08:40AM 42.1386 -85.5283 91° East 460 529 25,500 1,020 Climbing Chicago Center
08:41AM 42.1367 -85.3225 91° East 462 532 26,700 1,020 Climbing Chicago Center
08:42AM 42.1356 -85.1475 90° East 468 539 27,700 960 Climbing Chicago Center
08:43AM 42.1325 -84.9739 91° East 468 539 28,700 840 Climbing Chicago Center
08:44AM 42.1300 -84.7981 91° East 470 541 29,500 720 Climbing Chicago Center
08:45AM 42.1319 -84.6208 89° East 476 548 30,300 720 Climbing Chicago Center
08:46AM 42.1467 -84.4397 84° East 485 558 31,000 360 Climbing Chicago Center
08:47AM 42.1586 -84.3064 83° East 502 578 31,000  Level Cleveland Center
08:48AM 42.1786 -84.0717 83° East 523 602 31,000  Level Cleveland Center
08:49AM 42.1950 -83.8761 83° East 528 608 31,000  Level Cleveland Center
08:50AM 42.2114 -83.6789 84° East 532 612 31,000 -420 Level Cleveland Center
08:51AM 42.2281 -83.4750 84° East 535 616 30,200 -1,140 Descending Cleveland Center
08:52AM 42.2439 -83.2728 84° East 537 618 28,700 -1,500 Descending Cleveland Center
08:53AM 42.2608 -83.0569 84° East 539 620 27,200 -840 Descending Cleveland Center
08:54AM 42.2756 -82.8569 84° East 540 621 27,000 -120 Descending Cleveland Center
08:55AM 42.2911 -82.6556 84° East 540 621 27,000  Level Cleveland Center
08:56AM 42.3044 -82.4556 85° East 538 619 27,000  Level Cleveland Center
08:57AM 42.3217 -82.2156 84° East 537 618 27,000  Level Cleveland Center
08:58AM 42.3350 -82.0208 85° East 537 618 27,000  Level Cleveland Center
08:59AM 42.3483 -81.8189 85° East 535 616 27,000  Level Cleveland Center
09:00AM 42.3622 -81.6156 85° East 535 616 27,000  Level Cleveland Center
09:02AM 42.3753 -81.4139 85° East 534 615 27,000  Level Cleveland Center
09:03AM 42.3875 -81.2122 85° East 533 613 27,000  Level Cleveland Center
09:04AM 42.4017 -80.9772 85° East 533 613 27,000  Level Cleveland Center
09:05AM 42.4133 -80.7764 85° East 530 610 27,000 -60 Level Cleveland Center
09:06AM 42.4256 -80.5772 85° East 526 605 26,900 -900 Descending Cleveland Center
09:07AM 42.4358 -80.3736 86° East 535 616 25,200 -1,800 Descending Cleveland Center
09:08AM 42.4475 -80.1775 85° East 523 602 23,300 -2,040 Descending Cleveland Center
09:09AM 42.4575 -79.9792 86° East 496 571 21,100 -2,220 Descending Cleveland Center
09:10AM 42.4661 -79.8106 86° East 464 534 18,700 -2,400 Descending Cleveland Center
09:11AM 42.4733 -79.6447 87° East 445 512 16,100 -2,820 Descending Cleveland Center
09:12AM 42.5244 -79.4736 68° East 420 483 12,900 -2,520 Descending Cleveland Center
09:13AM 42.5936 -79.3547 52° Northeast 405 466 11,000 -960 Descending Cleveland Center
09:14AM 42.6600 -79.2439 51° Northeast 383 441 11,000 -240 Level Cleveland Center
09:15AM 42.7272 -79.1475 46° Northeast 346 398 10,600 -1,140 Descending Cleveland Center
09:16AM 42.8022 -79.0569 42° Northeast 322 371 8,700 -1,740 Descending Cleveland Center
09:17AM 42.8692 -78.9789 41° Northeast 306 352 7,100 -1,500 Descending Cleveland Center
09:18AM 42.9300 -78.9089 40° Northeast 299 344 5,600 -1,740 Descending Cleveland Center
09:19AM 42.9933 -78.8342 41° Northeast 292 336 3,600 -1,620 Descending Cleveland Center
09:20AM 43.0411 -78.7489 53° Northeast 277 319 2,300 -660 Descending Cleveland Center
09:21AM 43.0167 -78.6819 117° Southeast 186 214 2,300 -300 Level Cleveland Center
09:22AM 42.9864 -78.6731 168° South 121 139 1,800 -600 Descending Cleveland Center
09:23AM 42.9500 -78.7000 208° Southwest 113 130 1,000 -720 Descending Buffalo TRACON